createdAt,value
2023-01-20T18:38:38.320Z,40.08
2023-01-20T18:41:05.610Z,22.42
2023-01-20T18:43:32.934Z,19.77
2023-01-20T20:12:45.928Z,22.67
2023-01-20T20:15:13.197Z,21.17
2023-01-20T20:17:40.511Z,18.55
2023-01-20T20:20:08.266Z,16.00
2023-01-20T20:22:35.541Z,19.08
2023-01-20T20:25:02.803Z,18.73
2023-01-20T20:27:30.053Z,20.48
2023-01-20T20:30:01.155Z,14.75
2023-01-20T20:32:28.753Z,20.13
2023-01-20T20:34:58.470Z,20.58
2023-01-20T20:37:26.013Z,20.25
2023-01-20T20:39:53.314Z,19.92
2023-01-20T20:42:20.940Z,16.60
2023-01-20T20:44:48.233Z,16.45
2023-01-20T20:47:15.533Z,21.48
2023-01-20T20:49:42.878Z,23.85
2023-01-20T20:52:10.242Z,21.45
2023-01-20T20:54:37.561Z,21.40
2023-01-20T20:57:05.046Z,16.80
2023-01-20T20:59:32.437Z,16.08
2023-01-20T21:01:59.741Z,15.55
2023-01-20T21:04:27.096Z,15.80
2023-01-20T21:06:54.360Z,17.67
2023-01-20T21:09:21.613Z,17.80
2023-01-20T21:11:48.827Z,20.92
2023-01-20T21:14:17.587Z,26.35
2023-01-20T21:16:44.890Z,22.02
2023-01-20T21:19:12.217Z,20.25
2023-01-20T21:21:39.716Z,18.38
2023-01-20T21:24:09.959Z,19.88
2023-01-20T21:26:37.277Z,15.90
2023-01-20T21:29:04.530Z,17.20
2023-01-20T21:31:32.447Z,12.80
2023-01-20T21:34:01.086Z,15.38
2023-01-20T21:36:29.459Z,16.77
2023-01-20T21:38:59.000Z,14.65
2023-01-20T21:41:26.487Z,14.00
2023-01-20T21:44:32.233Z,17.70
2023-01-20T21:47:04.563Z,16.73
2023-01-20T21:49:54.997Z,18.58
2023-01-20T21:52:42.477Z,12.05
2023-01-20T21:57:43.214Z,15.65
2023-01-20T22:00:11.687Z,12.10
2023-01-20T22:02:40.692Z,11.00
2023-01-20T22:05:08.396Z,10.85
2023-01-20T22:07:35.651Z,11.43
2023-01-20T22:10:03.861Z,11.65
2023-01-20T22:12:34.485Z,11.75
2023-01-20T22:15:03.236Z,10.77
2023-01-20T22:17:31.167Z,13.20
2023-01-20T22:19:58.348Z,10.05
2023-01-20T22:22:25.735Z,15.88
2023-01-20T22:24:53.509Z,10.68
2023-01-20T22:27:20.876Z,10.23
2023-01-20T22:29:48.182Z,12.02
2023-01-20T22:32:15.635Z,10.77
2023-01-20T22:34:42.810Z,13.05
2023-01-20T22:37:10.174Z,11.00
2023-01-20T22:39:37.380Z,13.02
2023-01-20T22:42:04.761Z,12.10
2023-01-20T22:44:31.978Z,9.93
2023-01-20T22:46:59.252Z,9.30
2023-01-20T22:49:26.643Z,10.80
2023-01-20T22:51:54.713Z,14.48
2023-01-20T22:54:22.031Z,11.30
2023-01-20T22:56:49.372Z,10.32
2023-01-20T22:59:16.674Z,13.77
2023-01-20T23:01:43.950Z,13.55
2023-01-20T23:04:11.321Z,12.20
2023-01-20T23:06:39.280Z,12.05
2023-01-20T23:09:09.253Z,11.52
2023-01-20T23:11:38.303Z,14.90
2023-01-20T23:14:06.568Z,11.20
2023-01-20T23:16:33.928Z,12.82
2023-01-20T23:19:01.175Z,16.67
2023-01-20T23:21:28.525Z,14.38
2023-01-20T23:23:55.784Z,12.48
2023-01-20T23:26:25.486Z,15.55
2023-01-20T23:28:53.953Z,12.82
2023-01-20T23:31:23.510Z,12.15
2023-01-20T23:33:52.702Z,10.18
2023-01-20T23:36:25.124Z,7.80
2023-01-20T23:38:56.505Z,11.45
2023-01-20T23:41:24.752Z,8.60
2023-01-20T23:43:52.252Z,6.55
2023-01-20T23:46:19.541Z,6.28
2023-01-20T23:48:47.546Z,6.35
2023-01-20T23:51:15.284Z,5.77
2023-01-20T23:53:42.844Z,4.65
2023-01-20T23:56:13.428Z,6.07
2023-01-20T23:58:41.343Z,4.47
